createdAt,value
2022-09-22T00:01:29.595Z,5.93
2022-09-22T00:04:19.527Z,6.72
2022-09-22T00:07:09.506Z,6.45
2022-09-22T00:09:59.794Z,7.82
2022-09-22T00:12:48.857Z,6.65
2022-09-22T00:15:38.238Z,5.70
2022-09-22T00:18:30.260Z,6.70
2022-09-22T00:21:21.623Z,5.68
2022-09-22T00:24:11.267Z,6.65
2022-09-22T00:27:02.032Z,6.47
2022-09-22T00:29:53.817Z,5.90
2022-09-22T00:32:43.262Z,5.40
2022-09-22T00:35:37.056Z,6.95
2022-09-22T00:38:27.943Z,6.70
2022-09-22T00:41:21.328Z,6.20
2022-09-22T00:47:14.604Z,5.88
2022-09-22T00:50:11.595Z,8.73
2022-09-22T00:53:05.956Z,5.68
2022-09-22T00:55:59.292Z,6.25
2022-09-22T00:58:55.137Z,6.57
2022-09-22T01:01:44.927Z,7.15
2022-09-22T01:04:35.014Z,7.68
2022-09-22T01:07:27.325Z,7.13
2022-09-22T01:10:19.188Z,7.57
2022-09-22T01:13:21.447Z,5.72
2022-09-22T01:16:27.558Z,7.30
2022-09-22T01:19:39.194Z,9.15
2022-09-22T01:22:48.113Z,7.70
2022-09-22T01:26:01.375Z,6.88
2022-09-22T01:29:11.085Z,9.27
2022-09-22T01:32:11.014Z,8.10
2022-09-22T01:35:07.682Z,9.60
2022-09-22T01:38:05.641Z,6.15
2022-09-22T01:41:00.947Z,7.05
2022-09-22T01:43:55.008Z,7.63
2022-09-22T01:46:56.260Z,9.13
2022-09-22T01:49:52.179Z,10.90
2022-09-22T01:52:43.698Z,7.30
2022-09-22T01:55:40.147Z,6.75
2022-09-22T01:58:35.162Z,7.78
2022-09-22T02:01:29.753Z,7.40
2022-09-22T02:04:22.613Z,7.30
2022-09-22T02:07:20.581Z,6.28
2022-09-22T02:10:14.231Z,7.63
2022-09-22T02:13:03.916Z,12.52
2022-09-22T02:16:02.613Z,7.47
2022-09-22T02:18:56.284Z,7.45
2022-09-22T02:21:49.642Z,5.97
2022-09-22T02:24:43.829Z,5.53
2022-09-22T02:27:37.311Z,6.15
2022-09-22T02:33:18.202Z,6.45
2022-09-22T02:36:22.400Z,7.80
2022-09-22T02:39:14.661Z,7.95
2022-09-22T02:42:19.205Z,8.45
2022-09-22T02:45:17.442Z,8.35
2022-09-22T02:48:12.354Z,8.50
2022-09-22T02:51:01.646Z,7.50
2022-09-22T02:53:50.670Z,8.68
2022-09-22T02:56:40.491Z,5.53
2022-09-22T02:59:31.170Z,10.68
2022-09-22T03:02:21.489Z,7.25
2022-09-22T03:05:10.993Z,5.63
2022-09-22T03:08:01.029Z,7.15
2022-09-22T03:10:50.892Z,7.72
2022-09-22T03:13:40.886Z,6.50
2022-09-22T03:16:32.610Z,7.50
2022-09-22T03:19:22.600Z,6.10
2022-09-22T03:22:11.925Z,8.10
2022-09-22T03:25:00.937Z,6.93
2022-09-22T03:27:50.427Z,6.50
2022-09-22T03:30:41.123Z,9.80
2022-09-22T03:33:32.321Z,6.80
2022-09-22T03:36:22.717Z,6.97
2022-09-22T03:39:12.606Z,5.90
2022-09-22T03:42:03.406Z,4.70
2022-09-22T03:44:52.674Z,6.22
2022-09-22T03:47:41.721Z,9.25
2022-09-22T03:50:33.371Z,5.43
2022-09-22T03:53:22.948Z,7.18
2022-09-22T03:56:14.983Z,6.75
2022-09-22T03:59:04.784Z,7.22
2022-09-22T04:01:58.279Z,6.57
2022-09-22T04:04:50.171Z,7.75
2022-09-22T04:07:41.454Z,7.07
2022-09-22T04:10:30.926Z,6.28
2022-09-22T04:13:21.441Z,9.30
2022-09-22T04:16:11.200Z,6.75
2022-09-22T04:19:01.801Z,6.13
2022-09-22T04:21:56.876Z,8.45
2022-09-22T04:24:48.534Z,8.30
2022-09-22T04:27:37.908Z,7.88
2022-09-22T04:30:28.280Z,11.07
2022-09-22T04:33:18.175Z,6.32
2022-09-22T04:36:07.953Z,9.95
2022-09-22T04:38:58.257Z,7.10
2022-09-22T04:41:49.243Z,8.27
2022-09-22T04:44:39.038Z,9.80
2022-09-22T04:47:28.408Z,8.57
2022-09-22T04:50:18.395Z,9.43
2022-09-22T04:53:08.196Z,8.65
2022-09-22T04:55:57.744Z,8.27
2022-09-22T04:58:49.372Z,9.60
2022-09-22T05:01:39.325Z,9.18
2022-09-22T05:04:29.669Z,9.07
2022-09-22T05:07:19.533Z,11.35
2022-09-22T05:10:09.138Z,12.18
2022-09-22T05:13:00.551Z,9.82
2022-09-22T05:15:51.430Z,14.00
2022-09-22T05:18:41.729Z,12.45
2022-09-22T05:21:31.526Z,16.02
2022-09-22T05:24:21.589Z,11.50
2022-09-22T05:27:11.015Z,12.23
2022-09-22T05:30:01.981Z,17.90
2022-09-22T05:32:55.742Z,14.07
2022-09-22T05:35:45.131Z,11.23
2022-09-22T05:38:34.588Z,9.55
2022-09-22T05:41:29.418Z,12.90
2022-09-22T05:44:19.492Z,13.93
2022-09-22T05:47:09.149Z,10.75
2022-09-22T05:50:00.184Z,10.10
2022-09-22T05:52:50.587Z,17.27
2022-09-22T05:55:42.496Z,13.70
2022-09-22T05:58:31.981Z,13.63
2022-09-22T06:01:23.250Z,14.32
2022-09-22T06:04:13.061Z,12.70
2022-09-22T06:07:05.421Z,11.52
2022-09-22T06:09:57.472Z,14.30
2022-09-22T06:12:48.055Z,17.65
2022-09-22T06:15:39.063Z,16.20
2022-09-22T06:18:28.731Z,17.65
2022-09-22T06:21:19.745Z,15.57
2022-09-22T06:24:10.849Z,18.50
2022-09-22T06:26:59.703Z,18.10
2022-09-22T06:29:49.798Z,14.73
2022-09-22T06:32:40.078Z,16.80
2022-09-22T06:35:35.896Z,19.05
2022-09-22T06:38:25.819Z,20.42
2022-09-22T06:41:17.175Z,19.15
2022-09-22T06:44:08.967Z,18.60
2022-09-22T06:46:58.575Z,13.85
2022-09-22T06:49:48.652Z,16.42
2022-09-22T06:52:38.543Z,15.00
2022-09-22T06:55:28.799Z,11.70
2022-09-22T06:58:20.006Z,12.48
2022-09-22T07:01:10.119Z,16.13
2022-09-22T07:04:01.495Z,13.10
2022-09-22T07:06:50.896Z,11.65
2022-09-22T07:09:41.149Z,12.35
2022-09-22T07:12:32.718Z,9.73
2022-09-22T07:15:23.578Z,9.27
2022-09-22T07:18:13.099Z,10.82
2022-09-22T07:21:06.409Z,11.52
2022-09-22T07:23:58.245Z,8.80
2022-09-22T07:26:48.463Z,7.72
2022-09-22T07:29:38.722Z,7.18
2022-09-22T07:32:36.313Z,9.32
2022-09-22T07:35:25.915Z,8.18
2022-09-22T07:38:37.216Z,8.88
2022-09-22T07:41:29.311Z,7.43
2022-09-22T07:44:32.930Z,6.78
2022-09-22T07:47:20.944Z,8.27
2022-09-22T07:50:11.629Z,5.72
2022-09-22T07:53:02.688Z,7.47
2022-09-22T07:55:52.526Z,6.47
2022-09-22T07:58:45.206Z,7.30
2022-09-22T08:01:35.146Z,5.68
2022-09-22T08:04:27.390Z,5.80
2022-09-22T08:07:19.436Z,4.82
2022-09-22T08:10:13.146Z,4.63
2022-09-22T08:13:04.735Z,7.63
2022-09-22T08:15:57.618Z,6.32
2022-09-22T08:18:47.460Z,4.57
2022-09-22T08:21:36.943Z,4.45
2022-09-22T08:24:26.810Z,6.57
2022-09-22T08:27:15.766Z,7.80
2022-09-22T08:30:05.147Z,5.07
2022-09-22T08:32:53.907Z,6.35
2022-09-22T08:35:55.328Z,3.35
2022-09-22T08:38:49.683Z,4.30
2022-09-22T08:41:53.749Z,3.03
2022-09-22T08:44:50.092Z,3.33
2022-09-22T08:47:56.349Z,3.50
2022-09-22T08:51:09.172Z,5.35
2022-09-22T08:54:03.056Z,4.05
2022-09-22T08:57:03.079Z,3.75
2022-09-22T08:59:57.156Z,7.80
2022-09-22T09:02:47.781Z,4.85
2022-09-22T09:05:52.052Z,2.63
2022-09-22T09:09:10.327Z,5.15
2022-09-22T09:12:23.553Z,4.05
2022-09-22T09:15:30.632Z,4.60
2022-09-22T09:18:25.023Z,3.88
2022-09-22T09:21:17.775Z,2.90
2022-09-22T09:27:26.004Z,8.90
2022-09-22T09:30:18.631Z,3.58
2022-09-22T09:33:19.392Z,2.20
2022-09-22T09:39:14.911Z,3.08
2022-09-22T09:42:08.807Z,3.90
2022-09-22T09:45:03.204Z,2.75
2022-09-22T09:48:08.446Z,2.35
2022-09-22T09:50:57.300Z,2.33
2022-09-22T09:53:50.266Z,2.50
2022-09-22T09:57:06.660Z,4.65
2022-09-22T10:03:23.088Z,3.30
2022-09-22T10:06:14.133Z,2.42
2022-09-22T10:09:03.803Z,2.83
2022-09-22T10:12:06.698Z,2.65
2022-09-22T10:14:59.306Z,2.45
2022-09-22T10:17:50.017Z,2.28
2022-09-22T10:20:41.441Z,6.05
2022-09-22T10:23:33.778Z,1.88
2022-09-22T10:26:27.140Z,1.73
2022-09-22T10:29:21.278Z,8.93
2022-09-22T10:32:18.310Z,2.10
2022-09-22T10:35:30.270Z,4.95
2022-09-22T10:38:25.910Z,2.85
2022-09-22T10:41:18.555Z,2.30
2022-09-22T10:44:39.325Z,4.07
2022-09-22T10:47:35.567Z,1.83
2022-09-22T10:50:48.605Z,2.20
2022-09-22T10:53:58.704Z,2.28
2022-09-22T10:56:54.038Z,1.88
2022-09-22T11:00:00.895Z,3.13
2022-09-22T11:03:13.464Z,3.35
2022-09-22T11:06:32.456Z,3.17
2022-09-22T11:09:49.616Z,1.33
2022-09-22T11:12:48.978Z,3.63
2022-09-22T11:16:03.885Z,3.70
2022-09-22T11:19:13.820Z,2.83
2022-09-22T11:22:20.931Z,3.30
2022-09-22T11:25:26.432Z,2.60
2022-09-22T11:28:30.453Z,2.88
2022-09-22T11:31:38.871Z,4.03
2022-09-22T11:34:49.862Z,2.53
2022-09-22T11:37:54.055Z,2.63
2022-09-22T11:40:58.811Z,8.43
2022-09-22T11:44:11.103Z,2.45
2022-09-22T11:47:18.096Z,5.30
2022-09-22T11:50:27.060Z,2.45
2022-09-22T11:53:45.984Z,2.55
2022-09-22T11:56:41.040Z,2.72
2022-09-22T11:59:41.358Z,2.03
2022-09-22T12:02:36.439Z,1.70
2022-09-22T12:05:33.474Z,2.72
2022-09-22T12:08:25.108Z,2.55
2022-09-22T12:11:18.597Z,4.47
2022-09-22T12:14:16.049Z,2.88
2022-09-22T12:17:11.757Z,2.63
2022-09-22T12:20:14.236Z,1.73
2022-09-22T12:23:19.617Z,2.85
2022-09-22T12:26:13.279Z,2.97
2022-09-22T12:29:11.657Z,3.13
2022-09-22T12:32:03.570Z,3.25
2022-09-22T12:34:55.111Z,3.70
2022-09-22T12:37:45.163Z,2.70
2022-09-22T12:40:42.078Z,1.90
2022-09-22T12:43:32.601Z,1.35
2022-09-22T12:46:30.882Z,2.53
2022-09-22T12:49:24.393Z,3.05
2022-09-22T12:52:44.079Z,2.33
2022-09-22T12:55:38.844Z,2.80
2022-09-22T12:58:44.208Z,2.20
2022-09-22T13:01:37.310Z,3.65
2022-09-22T13:04:29.997Z,2.53
2022-09-22T13:07:40.544Z,1.45
2022-09-22T13:10:55.946Z,2.38
2022-09-22T13:13:48.410Z,1.90
2022-09-22T13:16:39.339Z,2.67
2022-09-22T13:19:30.354Z,1.55
2022-09-22T13:22:22.205Z,2.22
2022-09-22T13:25:28.233Z,2.53
2022-09-22T13:28:22.071Z,2.53
2022-09-22T13:31:17.026Z,2.95
2022-09-22T13:34:21.814Z,4.55
2022-09-22T13:37:18.586Z,2.92
2022-09-22T13:40:13.818Z,2.15
2022-09-22T13:43:07.020Z,2.20
2022-09-22T13:45:58.285Z,2.35
2022-09-22T13:48:48.428Z,6.13
2022-09-22T13:51:39.342Z,6.68
2022-09-22T13:54:33.941Z,5.15
2022-09-22T13:57:27.501Z,4.47
2022-09-22T14:00:27.119Z,3.75
2022-09-22T14:03:22.009Z,3.72
2022-09-22T14:06:16.093Z,4.22
2022-09-22T14:09:06.383Z,4.50
2022-09-22T14:11:58.412Z,2.60
2022-09-22T14:14:47.173Z,4.22
2022-09-22T14:17:36.747Z,4.38
2022-09-22T14:20:25.708Z,6.85
2022-09-22T14:23:23.783Z,3.25
2022-09-22T14:26:25.446Z,2.75
2022-09-22T14:29:20.751Z,3.88
2022-09-22T14:32:13.472Z,3.05
2022-09-22T14:35:06.580Z,3.50
2022-09-22T14:38:01.415Z,3.47
2022-09-22T14:40:59.212Z,2.90
2022-09-22T14:43:47.992Z,3.55
2022-09-22T14:46:42.373Z,5.03
2022-09-22T14:49:40.241Z,3.75
2022-09-22T14:52:31.971Z,3.92
2022-09-22T14:55:29.945Z,3.65
2022-09-22T14:58:23.714Z,4.18
2022-09-22T15:01:37.803Z,3.90
2022-09-22T15:04:30.216Z,4.68
2022-09-22T15:07:25.027Z,4.13
2022-09-22T15:10:22.272Z,3.80
2022-09-22T15:13:20.961Z,5.60
2022-09-22T15:16:38.802Z,3.25
2022-09-22T15:19:28.892Z,2.58
2022-09-22T15:22:17.234Z,3.05
2022-09-22T15:25:06.619Z,3.33
2022-09-22T15:27:55.269Z,2.30
2022-09-22T15:30:45.163Z,3.08
2022-09-22T15:33:34.221Z,2.90
2022-09-22T15:36:26.456Z,3.13
2022-09-22T15:39:22.389Z,3.47
2022-09-22T15:42:12.973Z,1.90
2022-09-22T15:45:01.635Z,2.42
2022-09-22T15:47:54.388Z,3.38
2022-09-22T15:50:43.137Z,3.65
2022-09-22T15:53:34.049Z,2.80
2022-09-22T15:56:25.269Z,3.38
2022-09-22T15:59:20.469Z,4.25
2022-09-22T16:02:13.323Z,4.65
2022-09-22T16:05:05.056Z,2.05
2022-09-22T16:07:54.916Z,2.70
2022-09-22T16:10:46.768Z,5.55
2022-09-22T16:13:35.420Z,3.58
2022-09-22T16:16:24.518Z,5.32
2022-09-22T16:19:13.451Z,5.18
2022-09-22T16:22:03.288Z,3.45
2022-09-22T16:24:52.196Z,3.15
2022-09-22T16:27:42.175Z,3.45
2022-09-22T16:30:31.039Z,4.00
2022-09-22T16:33:19.488Z,3.88
2022-09-22T16:36:08.746Z,3.80
2022-09-22T16:38:58.329Z,3.42
2022-09-22T16:41:48.628Z,6.65
2022-09-22T16:44:38.509Z,4.93
2022-09-22T16:47:28.813Z,5.43
2022-09-22T16:50:18.271Z,4.95
2022-09-22T16:53:08.985Z,5.57
2022-09-22T16:55:58.161Z,4.05
2022-09-22T16:58:46.699Z,5.80
2022-09-22T17:01:38.647Z,6.35
2022-09-22T17:04:27.184Z,5.00
2022-09-22T17:07:18.190Z,5.93
2022-09-22T17:10:07.863Z,5.43
2022-09-22T17:12:58.173Z,4.80
2022-09-22T17:15:46.853Z,7.60
2022-09-22T17:18:40.104Z,7.20
2022-09-22T17:21:33.952Z,6.10
2022-09-22T17:24:23.326Z,5.10
2022-09-22T17:27:12.899Z,4.03
2022-09-22T17:30:02.076Z,5.88
2022-09-22T17:32:50.620Z,5.88
2022-09-22T17:35:40.910Z,8.45
2022-09-22T17:38:30.899Z,5.70
2022-09-22T17:41:20.271Z,6.25
2022-09-22T17:44:10.676Z,7.35
2022-09-22T17:47:12.530Z,7.20
2022-09-22T17:50:18.498Z,5.80
2022-09-22T17:53:27.309Z,7.15
2022-09-22T17:56:14.016Z,6.75
2022-09-22T17:59:00.753Z,6.38
2022-09-22T18:01:49.310Z,5.63
2022-09-22T18:04:40.897Z,5.43
2022-09-22T18:07:29.566Z,6.38
2022-09-22T18:10:20.159Z,8.18
2022-09-22T18:13:10.756Z,7.70
2022-09-22T18:15:59.477Z,6.03
2022-09-22T18:18:48.168Z,7.05
2022-09-22T18:21:39.987Z,9.48
2022-09-22T18:24:28.948Z,7.78
2022-09-22T18:27:20.073Z,7.35
2022-09-22T18:30:12.145Z,7.53
2022-09-22T18:33:02.798Z,6.32
2022-09-22T18:35:51.146Z,7.10
2022-09-22T18:38:42.765Z,9.88
2022-09-22T18:41:32.747Z,10.23
2022-09-22T18:44:22.929Z,9.80
2022-09-22T18:47:15.499Z,5.40
2022-09-22T18:50:05.371Z,6.25
2022-09-22T18:52:57.100Z,5.38
2022-09-22T18:55:45.641Z,5.63
2022-09-22T18:58:34.098Z,9.60
2022-09-22T19:01:24.910Z,6.45
2022-09-22T19:04:17.863Z,6.32
2022-09-22T19:07:20.134Z,10.93
2022-09-22T19:10:08.383Z,6.03
2022-09-22T19:12:55.899Z,9.88
2022-09-22T19:15:44.379Z,7.80
2022-09-22T19:18:34.353Z,6.28
2022-09-22T19:21:22.991Z,9.27
2022-09-22T19:24:11.857Z,9.10
2022-09-22T19:27:00.508Z,7.57
2022-09-22T19:29:48.759Z,7.00
2022-09-22T19:32:36.992Z,9.90
2022-09-22T19:35:27.087Z,14.95
2022-09-22T19:38:18.293Z,14.60
2022-09-22T19:41:07.058Z,11.13
2022-09-22T19:43:55.931Z,8.40
2022-09-22T19:46:44.512Z,12.73
2022-09-22T19:49:33.122Z,11.77
2022-09-22T19:52:23.414Z,9.27
2022-09-22T19:55:13.301Z,14.95
2022-09-22T19:58:02.152Z,8.63
2022-09-22T20:00:50.291Z,12.25
2022-09-22T20:03:38.651Z,15.65
2022-09-22T20:06:27.516Z,12.93
2022-09-22T20:09:17.376Z,14.80
2022-09-22T20:12:06.243Z,12.77
2022-09-22T20:14:55.003Z,13.50
2022-09-22T20:17:46.526Z,17.77
2022-09-22T20:20:38.124Z,21.98
2022-09-22T20:23:26.699Z,17.73
2022-09-22T20:26:31.189Z,18.77
2022-09-22T20:29:21.296Z,19.25
2022-09-22T20:32:11.099Z,17.83
2022-09-22T20:35:01.810Z,15.80
2022-09-22T20:38:00.918Z,13.82
2022-09-22T20:40:53.251Z,12.20
2022-09-22T20:43:46.207Z,14.05
2022-09-22T20:46:37.362Z,17.35
2022-09-22T20:49:32.411Z,21.20
2022-09-22T20:52:22.120Z,16.25
2022-09-22T20:55:13.503Z,12.60
2022-09-22T20:58:06.154Z,14.25
2022-09-22T21:01:00.238Z,14.95
2022-09-22T21:03:49.717Z,14.02
2022-09-22T21:06:42.352Z,13.88
2022-09-22T21:09:45.963Z,17.92
2022-09-22T21:12:39.673Z,10.80
2022-09-22T21:15:31.983Z,22.98
2022-09-22T21:18:23.028Z,16.55
2022-09-22T21:21:11.946Z,13.57
2022-09-22T21:24:02.754Z,11.55
2022-09-22T21:26:51.608Z,15.23
2022-09-22T21:29:40.293Z,10.98
2022-09-22T21:32:29.229Z,14.57
2022-09-22T21:35:20.648Z,14.57
2022-09-22T21:38:08.890Z,12.98
2022-09-22T21:41:00.105Z,12.13
2022-09-22T21:43:50.499Z,20.00
2022-09-22T21:46:41.585Z,14.05
2022-09-22T21:49:30.258Z,15.45
2022-09-22T21:52:19.729Z,13.00
2022-09-22T21:55:09.289Z,11.63
2022-09-22T21:57:57.858Z,10.90
2022-09-22T22:00:52.099Z,13.32
2022-09-22T22:03:43.002Z,11.52
2022-09-22T22:06:33.350Z,9.77
2022-09-22T22:09:26.098Z,10.95
2022-09-22T22:12:14.136Z,10.18
2022-09-22T22:15:02.172Z,10.30
2022-09-22T22:17:50.521Z,9.20
2022-09-22T22:20:38.564Z,9.98
2022-09-22T22:23:29.477Z,8.85
2022-09-22T22:26:21.704Z,9.95
2022-09-22T22:29:12.614Z,9.75
2022-09-22T22:32:01.986Z,9.02
2022-09-22T22:34:50.434Z,8.57
2022-09-22T22:37:38.884Z,8.52
2022-09-22T22:40:27.186Z,11.13
2022-09-22T22:43:18.037Z,11.52
2022-09-22T22:46:07.145Z,8.05
2022-09-22T22:48:55.757Z,6.93
2022-09-22T22:51:45.225Z,11.63
2022-09-22T22:54:34.188Z,9.65
2022-09-22T22:57:22.536Z,14.60
2022-09-22T23:00:13.752Z,8.75
2022-09-22T23:03:02.511Z,10.60
2022-09-22T23:05:58.737Z,8.05
2022-09-22T23:08:47.499Z,12.00
2022-09-22T23:11:38.691Z,11.43
2022-09-22T23:14:26.950Z,11.02
2022-09-22T23:17:18.981Z,10.38
2022-09-22T23:20:09.717Z,9.13
2022-09-22T23:22:58.753Z,9.43
2022-09-22T23:25:50.992Z,6.53
2022-09-22T23:28:40.660Z,8.07
2022-09-22T23:31:29.223Z,10.45
2022-09-22T23:34:19.814Z,9.15
2022-09-22T23:37:07.965Z,7.95
2022-09-22T23:39:56.822Z,5.80
2022-09-22T23:42:45.070Z,7.63
2022-09-22T23:45:33.818Z,7.93
2022-09-22T23:48:23.297Z,7.35
2022-09-22T23:51:12.975Z,8.63
2022-09-22T23:54:01.047Z,8.60
2022-09-22T23:56:49.545Z,9.48
2022-09-22T23:59:38.118Z,7.50
